Time;durP1;ratioP1;P1;durP2;ratioP2;P2;SDS_P1;SDS_P2;PMS_P1;PMS_P2;Temp;Humidity;BMP_temperature;BMP_pressure;BME280_temperature;BME280_humidity;BME280_pressure;Samples;Min_cycle;Max_cycle;Signal;HPM_P1;HPM_P2
2022/06/25 00:01:47;;;;;;;1.70;1.70;;;;;;;;;;1794592;80;27304;-55
2022/06/25 00:07:00;;;;;;;1.67;1.67;;;;;;;;;;1798329;79;26373;-49
2022/06/25 00:09:28;;;;;;;1.80;1.80;;;;;;;;;;1795668;79;27538;-56
2022/06/25 00:14:41;;;;;;;1.60;1.60;;;;;;;;;;1797108;78;26287;-59
2022/06/25 00:17:08;;;;;;;1.72;1.72;;;;;;;;;;1880168;75;26318;-54
2022/06/25 00:19:36;;;;;;;1.72;1.72;;;;;;;;;;1871734;75;26242;-54
2022/06/25 00:22:03;;;;;;;1.65;1.65;;;;;;;;;;1870707;75;26740;-52
2022/06/25 00:24:31;;;;;;;1.62;1.62;;;;;;;;;;1891119;75;26238;-54
2022/06/25 00:26:58;;;;;;;1.60;1.60;;;;;;;;;;1902633;75;26237;-51
2022/06/25 00:29:25;;;;;;;1.65;1.65;;;;;;;;;;1880695;76;26301;-55
2022/06/25 00:31:52;;;;;;;1.72;1.72;;;;;;;;;;1880522;75;26320;-48
2022/06/25 00:34:20;;;;;;;1.70;1.70;;;;;;;;;;1878246;75;26332;-55
2022/06/25 00:36:47;;;;;;;1.70;1.70;;;;;;;;;;1869901;75;26748;-56
2022/06/25 00:39:14;;;;;;;1.60;1.60;;;;;;;;;;1859177;76;26335;-57
2022/06/25 00:41:42;;;;;;;1.50;1.50;;;;;;;;;;1880701;75;26273;-57
2022/06/25 00:44:09;;;;;;;1.70;1.70;;;;;;;;;;1884868;75;26284;-52
2022/06/25 00:46:37;;;;;;;1.57;1.57;;;;;;;;;;1880567;75;26724;-55
2022/06/25 00:49:04;;;;;;;1.60;1.60;;;;;;;;;;1879957;75;26206;-62
2022/06/25 00:51:33;;;;;;;1.72;1.72;;;;;;;;;;1874673;75;26201;-53
2022/06/25 00:54:02;;;;;;;1.57;1.57;;;;;;;;;;1849897;75;26261;-58
2022/06/25 00:56:31;;;;;;;1.80;1.80;;;;;;;;;;1881408;75;26246;-52
2022/06/25 00:58:59;;;;;;;1.70;1.70;;;;;;;;;;1908011;75;26254;-59
2022/06/25 01:01:27;;;;;;;1.62;1.62;;;;;;;;;;1888651;75;26253;-55
2022/06/25 01:03:54;;;;;;;1.70;1.70;;;;;;;;;;1894171;75;26233;-55
2022/06/25 01:06:21;;;;;;;1.80;1.70;;;;;;;;;;1881932;75;26180;-53
2022/06/25 01:08:48;;;;;;;1.50;1.50;;;;;;;;;;1880242;75;26292;-50
2022/06/25 01:11:16;;;;;;;1.65;1.65;;;;;;;;;;1880684;75;26344;-56
2022/06/25 01:13:43;;;;;;;1.60;1.60;;;;;;;;;;1874335;75;26261;-53
2022/06/25 01:16:10;;;;;;;1.60;1.60;;;;;;;;;;1880724;76;26207;-56
2022/06/25 01:18:38;;;;;;;1.47;1.47;;;;;;;;;;1877759;75;26308;-50
2022/06/25 01:21:05;;;;;;;1.50;1.50;;;;;;;;;;1880170;75;26336;-57
2022/06/25 01:23:32;;;;;;;1.80;1.80;;;;;;;;;;1880851;76;26245;-55
2022/06/25 01:25:59;;;;;;;1.62;1.62;;;;;;;;;;1862858;75;26260;-52
2022/06/25 01:28:27;;;;;;;1.85;1.85;;;;;;;;;;1876349;76;26339;-48
2022/06/25 01:30:54;;;;;;;1.50;1.50;;;;;;;;;;1880870;75;26776;-52
2022/06/25 01:33:21;;;;;;;1.60;1.60;;;;;;;;;;1875044;75;26281;-48
2022/06/25 01:35:49;;;;;;;1.72;1.72;;;;;;;;;;1878342;75;26237;-52
2022/06/25 01:38:16;;;;;;;1.70;1.70;;;;;;;;;;1863955;75;26267;-53
2022/06/25 01:40:43;;;;;;;1.60;1.60;;;;;;;;;;1901837;74;26552;-48
2022/06/25 01:43:10;;;;;;;1.70;1.70;;;;;;;;;;1851089;75;26268;-53
2022/06/25 01:45:38;;;;;;;1.70;1.70;;;;;;;;;;1856007;75;26261;-54
2022/06/25 01:48:06;;;;;;;1.70;1.70;;;;;;;;;;1879887;76;26260;-47
2022/06/25 01:50:35;;;;;;;1.70;1.70;;;;;;;;;;1880322;75;26681;-51
2022/06/25 01:53:02;;;;;;;1.52;1.52;;;;;;;;;;1880802;75;26326;-49
2022/06/25 01:55:30;;;;;;;1.60;1.60;;;;;;;;;;1880771;76;26724;-50
2022/06/25 01:57:57;;;;;;;1.50;1.50;;;;;;;;;;1880502;75;26308;-49
2022/06/25 02:00:25;;;;;;;1.70;1.70;;;;;;;;;;1871175;76;26190;-51
2022/06/25 02:02:53;;;;;;;1.62;1.62;;;;;;;;;;1878980;75;26792;-49
2022/06/25 02:06:07;;;;;;;1.60;1.60;;;;;;;;;;1880706;75;26183;-49
2022/06/25 02:07:50;;;;;;;1.82;1.82;;;;;;;;;;1868641;76;26325;-51
2022/06/25 02:10:18;;;;;;;1.70;1.70;;;;;;;;;;1874948;75;26260;-54
2022/06/25 02:12:45;;;;;;;1.62;1.62;;;;;;;;;;1887556;75;26253;-50
2022/06/25 02:15:12;;;;;;;1.60;1.60;;;;;;;;;;1894223;75;26383;-51
2022/06/25 02:17:39;;;;;;;1.82;1.82;;;;;;;;;;1887141;74;26319;-57
2022/06/25 02:20:07;;;;;;;1.80;1.80;;;;;;;;;;1869739;76;26205;-49
2022/06/25 02:22:35;;;;;;;1.80;1.80;;;;;;;;;;1883315;74;26381;-54
2022/06/25 02:25:02;;;;;;;1.60;1.60;;;;;;;;;;1890342;74;26230;-51
2022/06/25 02:27:30;;;;;;;1.80;1.80;;;;;;;;;;1878463;76;26757;-49
2022/06/25 02:29:57;;;;;;;1.67;1.67;;;;;;;;;;1890215;76;26237;-54
2022/06/25 02:32:24;;;;;;;1.55;1.55;;;;;;;;;;1877956;74;26237;-60
2022/06/25 02:34:51;;;;;;;1.80;1.80;;;;;;;;;;1876470;74;26289;-65
2022/06/25 02:37:19;;;;;;;1.55;1.55;;;;;;;;;;1889729;76;26253;-50
2022/06/25 02:39:46;;;;;;;1.60;1.60;;;;;;;;;;1871259;74;26334;-48
2022/06/25 02:42:13;;;;;;;1.70;1.70;;;;;;;;;;1872298;74;26415;-48
2022/06/25 02:44:41;;;;;;;1.90;1.90;;;;;;;;;;1885040;74;26257;-51
2022/06/25 02:47:08;;;;;;;1.80;1.70;;;;;;;;;;1886715;74;26340;-49
2022/06/25 02:49:35;;;;;;;1.80;1.80;;;;;;;;;;1875522;74;26857;-50
2022/06/25 02:52:03;;;;;;;1.70;1.70;;;;;;;;;;1861451;74;26680;-55
2022/06/25 02:54:30;;;;;;;1.60;1.60;;;;;;;;;;1882735;74;26276;-52
2022/06/25 02:59:43;;;;;;;1.57;1.57;;;;;;;;;;1856845;74;26564;-59
2022/06/25 03:02:10;;;;;;;1.70;1.70;;;;;;;;;;1865532;76;26253;-49
2022/06/25 03:04:38;;;;;;;1.90;1.90;;;;;;;;;;1889902;76;26747;-50
2022/06/25 03:07:05;;;;;;;1.90;1.90;;;;;;;;;;1889574;74;26529;-48
2022/06/25 03:09:32;;;;;;;1.50;1.50;;;;;;;;;;1881926;74;26335;-50
2022/06/25 03:12:00;;;;;;;1.80;1.80;;;;;;;;;;1890081;74;26682;-51
2022/06/25 03:14:27;;;;;;;1.70;1.70;;;;;;;;;;1887844;74;26215;-52
2022/06/25 03:16:54;;;;;;;1.80;1.80;;;;;;;;;;1869400;74;26307;-52
2022/06/25 03:19:22;;;;;;;1.72;1.72;;;;;;;;;;1890713;74;26276;-54
2022/06/25 03:21:49;;;;;;;1.62;1.62;;;;;;;;;;1875830;75;26712;-53
2022/06/25 03:24:16;;;;;;;1.60;1.60;;;;;;;;;;1895942;74;26314;-55
2022/06/25 03:26:44;;;;;;;1.60;1.60;;;;;;;;;;1895786;74;26247;-48
2022/06/25 03:29:11;;;;;;;1.80;1.80;;;;;;;;;;1896491;74;26636;-73
2022/06/25 03:31:39;;;;;;;1.62;1.62;;;;;;;;;;1873014;75;26726;-49
2022/06/25 03:34:07;;;;;;;1.70;1.70;;;;;;;;;;1887312;74;26877;-57
2022/06/25 03:36:35;;;;;;;1.70;1.70;;;;;;;;;;1897706;74;26287;-56
2022/06/25 03:39:02;;;;;;;1.60;1.60;;;;;;;;;;1890420;74;26254;-49
2022/06/25 03:41:32;;;;;;;1.62;1.62;;;;;;;;;;1896186;75;26327;-67
2022/06/25 03:44:00;;;;;;;1.87;1.87;;;;;;;;;;1890577;75;26910;-53
2022/06/25 03:46:28;;;;;;;1.57;1.57;;;;;;;;;;1897442;74;26287;-49
2022/06/25 03:48:55;;;;;;;1.55;1.55;;;;;;;;;;1896271;75;26323;-52
2022/06/25 03:51:23;;;;;;;1.50;1.50;;;;;;;;;;1896380;75;26240;-52
2022/06/25 03:53:50;;;;;;;1.60;1.60;;;;;;;;;;1869152;74;26328;-54
2022/06/25 03:56:17;;;;;;;1.55;1.55;;;;;;;;;;1881841;74;26189;-53
2022/06/25 03:58:44;;;;;;;1.80;1.80;;;;;;;;;;1895280;74;27458;-52
2022/06/25 04:01:12;;;;;;;1.67;1.67;;;;;;;;;;1887328;75;26276;-56
2022/06/25 04:03:40;;;;;;;1.80;1.80;;;;;;;;;;1891097;74;26340;-55
2022/06/25 04:06:08;;;;;;;1.52;1.52;;;;;;;;;;1891874;74;27590;-50
2022/06/25 04:08:35;;;;;;;1.50;1.50;;;;;;;;;;1887688;74;26311;-57
2022/06/25 04:11:03;;;;;;;1.70;1.70;;;;;;;;;;1896364;74;26788;-54
2022/06/25 04:13:30;;;;;;;1.70;1.70;;;;;;;;;;1896507;74;26272;-54
2022/06/25 04:15:57;;;;;;;1.70;1.70;;;;;;;;;;1896121;74;26237;-48
2022/06/25 04:18:25;;;;;;;1.82;1.82;;;;;;;;;;1881696;75;26273;-56
2022/06/25 04:20:52;;;;;;;1.70;1.60;;;;;;;;;;1876478;75;26335;-60
2022/06/25 04:23:19;;;;;;;1.77;1.77;;;;;;;;;;1859215;76;26243;-62
2022/06/25 04:25:46;;;;;;;1.60;1.60;;;;;;;;;;1871313;75;26268;-51
2022/06/25 04:30:59;;;;;;;1.70;1.70;;;;;;;;;;1857158;75;26744;-49
2022/06/25 04:33:26;;;;;;;2.08;2.00;;;;;;;;;;1880055;75;26606;-60
2022/06/25 04:35:54;;;;;;;1.80;1.80;;;;;;;;;;1863876;75;26298;-54
2022/06/25 04:38:21;;;;;;;1.77;1.77;;;;;;;;;;1880602;75;26319;-53
2022/06/25 04:40:49;;;;;;;1.87;1.80;;;;;;;;;;1861352;75;26783;-47
2022/06/25 04:43:17;;;;;;;1.57;1.57;;;;;;;;;;1880841;75;26183;-56
2022/06/25 04:45:44;;;;;;;1.60;1.60;;;;;;;;;;1880675;75;26344;-47
2022/06/25 04:48:11;;;;;;;1.75;1.75;;;;;;;;;;1870229;75;26252;-51
2022/06/25 04:50:39;;;;;;;1.70;1.70;;;;;;;;;;1854914;75;26323;-47
2022/06/25 04:53:06;;;;;;;1.95;1.85;;;;;;;;;;1871218;76;26686;-67
2022/06/25 04:55:33;;;;;;;1.72;1.72;;;;;;;;;;1857625;76;26748;-48
2022/06/25 04:58:00;;;;;;;1.55;1.55;;;;;;;;;;1879429;76;26269;-47
2022/06/25 05:00:28;;;;;;;1.52;1.52;;;;;;;;;;1880588;76;26235;-55
2022/06/25 05:02:55;;;;;;;1.60;1.60;;;;;;;;;;1874758;75;26303;-48
2022/06/25 05:05:23;;;;;;;1.80;1.80;;;;;;;;;;1859683;75;26294;-53
2022/06/25 05:07:50;;;;;;;1.70;1.70;;;;;;;;;;1908967;74;26301;-53
2022/06/25 05:10:17;;;;;;;1.70;1.70;;;;;;;;;;1889731;75;26317;-50
2022/06/25 05:15:30;;;;;;;1.70;1.70;;;;;;;;;;1869839;75;26354;-49
2022/06/25 05:17:58;;;;;;;1.90;1.90;;;;;;;;;;1868032;74;26307;-47
2022/06/25 05:20:25;;;;;;;1.60;1.60;;;;;;;;;;1906334;74;26307;-49
2022/06/25 05:22:52;;;;;;;1.70;1.70;;;;;;;;;;1884353;74;26614;-56
2022/06/25 05:25:20;;;;;;;1.90;1.90;;;;;;;;;;1883233;74;26319;-54
2022/06/25 05:27:47;;;;;;;1.62;1.62;;;;;;;;;;1866738;74;26263;-49
2022/06/25 05:30:14;;;;;;;2.00;2.00;;;;;;;;;;1891353;74;26765;-47
2022/06/25 05:32:41;;;;;;;2.02;1.98;;;;;;;;;;1913670;74;26839;-49
2022/06/25 05:35:09;;;;;;;1.80;1.80;;;;;;;;;;1878592;74;26733;-51
2022/06/25 05:37:36;;;;;;;1.80;1.80;;;;;;;;;;1874633;74;26342;-49
2022/06/25 05:40:04;;;;;;;1.62;1.62;;;;;;;;;;1881523;74;26253;-47
2022/06/25 05:42:32;;;;;;;1.67;1.67;;;;;;;;;;1891149;74;26264;-47
2022/06/25 05:44:59;;;;;;;1.80;1.80;;;;;;;;;;1896988;74;26332;-56
2022/06/25 05:47:26;;;;;;;1.90;1.90;;;;;;;;;;1869553;74;26711;-55
2022/06/25 05:49:53;;;;;;;1.70;1.70;;;;;;;;;;1859395;74;26714;-52
2022/06/25 05:52:21;;;;;;;1.60;1.60;;;;;;;;;;1904152;74;26311;-52
2022/06/25 05:54:48;;;;;;;1.98;1.98;;;;;;;;;;1901010;74;26260;-65
2022/06/25 05:57:15;;;;;;;1.90;1.90;;;;;;;;;;1878742;74;26273;-50
2022/06/25 05:59:42;;;;;;;1.90;1.90;;;;;;;;;;1903071;74;26831;-50
2022/06/25 06:02:10;;;;;;;1.85;1.85;;;;;;;;;;1897037;74;26741;-53
2022/06/25 06:04:37;;;;;;;1.70;1.70;;;;;;;;;;1891275;74;26718;-51
2022/06/25 06:07:05;;;;;;;1.90;1.90;;;;;;;;;;1882710;74;26752;-47
2022/06/25 06:09:32;;;;;;;1.80;1.80;;;;;;;;;;1889503;74;26302;-57
2022/06/25 06:12:00;;;;;;;1.80;1.80;;;;;;;;;;1887878;74;26256;-54
2022/06/25 06:14:27;;;;;;;1.85;1.85;;;;;;;;;;1889941;74;26720;-50
2022/06/25 06:16:56;;;;;;;1.80;1.80;;;;;;;;;;1877618;74;26323;-47
2022/06/25 06:19:23;;;;;;;2.00;2.00;;;;;;;;;;1893049;75;26270;-50
2022/06/25 06:21:51;;;;;;;1.90;1.90;;;;;;;;;;1914421;74;26880;-50
2022/06/25 06:24:18;;;;;;;2.12;2.02;;;;;;;;;;1885387;74;26190;-51
2022/06/25 06:26:45;;;;;;;1.80;1.80;;;;;;;;;;1906434;74;26238;-52
2022/06/25 06:29:13;;;;;;;1.70;1.70;;;;;;;;;;1896410;75;26213;-48
2022/06/25 06:31:40;;;;;;;1.87;1.87;;;;;;;;;;1896240;74;26306;-52
2022/06/25 06:34:07;;;;;;;1.90;1.90;;;;;;;;;;1894610;75;26306;-53
2022/06/25 06:36:34;;;;;;;1.70;1.70;;;;;;;;;;1873900;74;26369;-48
2022/06/25 06:39:02;;;;;;;1.90;1.90;;;;;;;;;;1891663;74;26326;-51
2022/06/25 06:41:29;;;;;;;1.77;1.77;;;;;;;;;;1896359;74;26786;-48
2022/06/25 06:43:56;;;;;;;1.80;1.80;;;;;;;;;;1896302;74;26768;-49
2022/06/25 06:46:24;;;;;;;2.00;2.00;;;;;;;;;;1871434;74;26656;-49
2022/06/25 06:48:51;;;;;;;1.80;1.80;;;;;;;;;;1884509;74;26307;-49
2022/06/25 06:51:18;;;;;;;1.82;1.82;;;;;;;;;;1895367;74;26261;-54
2022/06/25 06:53:45;;;;;;;1.80;1.80;;;;;;;;;;1897161;74;26234;-52
2022/06/25 06:56:13;;;;;;;1.80;1.80;;;;;;;;;;1888050;74;26734;-48
2022/06/25 06:58:40;;;;;;;2.00;2.00;;;;;;;;;;1905437;74;26230;-51
2022/06/25 07:01:07;;;;;;;2.00;2.00;;;;;;;;;;1891548;74;26301;-52
2022/06/25 07:03:35;;;;;;;1.90;1.90;;;;;;;;;;1861536;74;26220;-50
2022/06/25 07:06:02;;;;;;;1.70;1.70;;;;;;;;;;1896770;75;26229;-53
2022/06/25 07:08:29;;;;;;;1.92;1.92;;;;;;;;;;1896360;75;26293;-51
2022/06/25 07:10:56;;;;;;;1.90;1.90;;;;;;;;;;1894709;74;26209;-50
2022/06/25 07:13:24;;;;;;;2.05;2.02;;;;;;;;;;1887154;74;26298;-47
2022/06/25 07:15:51;;;;;;;2.00;2.00;;;;;;;;;;1917235;74;26269;-51
2022/06/25 07:18:18;;;;;;;1.80;1.80;;;;;;;;;;1889448;75;26351;-55
2022/06/25 07:20:45;;;;;;;2.00;2.00;;;;;;;;;;1897684;75;26252;-51
2022/06/25 07:23:13;;;;;;;1.98;1.98;;;;;;;;;;1896591;75;26294;-48
2022/06/25 07:25:40;;;;;;;1.98;1.98;;;;;;;;;;1894900;75;26309;-61
2022/06/25 07:28:08;;;;;;;2.10;2.10;;;;;;;;;;1890806;76;26366;-55
2022/06/25 07:30:35;;;;;;;1.98;1.98;;;;;;;;;;1890624;75;26267;-48
2022/06/25 07:33:03;;;;;;;1.87;1.87;;;;;;;;;;1890772;76;26390;-48
2022/06/25 07:35:30;;;;;;;1.70;1.70;;;;;;;;;;1871180;75;26526;-50
2022/06/25 07:37:57;;;;;;;1.85;1.85;;;;;;;;;;1870385;75;26248;-52
2022/06/25 07:40:25;;;;;;;1.90;1.90;;;;;;;;;;1864254;75;26215;-51
2022/06/25 07:42:53;;;;;;;1.90;1.90;;;;;;;;;;1873459;76;26312;-60
2022/06/25 07:45:20;;;;;;;1.82;1.82;;;;;;;;;;1876228;75;26259;-48
2022/06/25 07:47:47;;;;;;;1.85;1.85;;;;;;;;;;1873054;75;26245;-48
2022/06/25 07:53:00;;;;;;;1.70;1.70;;;;;;;;;;1879658;76;26535;-49
2022/06/25 07:55:28;;;;;;;1.70;1.70;;;;;;;;;;1887318;75;26310;-50
2022/06/25 07:57:55;;;;;;;1.90;1.90;;;;;;;;;;1888222;76;26272;-49
2022/06/25 08:00:23;;;;;;;1.72;1.62;;;;;;;;;;1891299;75;26343;-50
2022/06/25 08:02:50;;;;;;;1.87;1.87;;;;;;;;;;1874034;75;26248;-48
2022/06/25 08:05:17;;;;;;;1.95;1.87;;;;;;;;;;1892627;75;26238;-62
2022/06/25 08:07:49;;;;;;;1.82;1.82;;;;;;;;;;1882390;76;26712;-52
2022/06/25 08:10:14;;;;;;;2.02;2.02;;;;;;;;;;1891475;75;27203;-50
2022/06/25 08:12:41;;;;;;;1.70;1.70;;;;;;;;;;1890427;75;26342;-56
2022/06/25 08:15:09;;;;;;;1.72;1.72;;;;;;;;;;1890697;76;26264;-48
2022/06/25 08:17:37;;;;;;;1.80;1.80;;;;;;;;;;1887035;76;26308;-53
2022/06/25 08:20:04;;;;;;;1.80;1.80;;;;;;;;;;1890269;74;26224;-49
2022/06/25 08:22:32;;;;;;;1.92;1.92;;;;;;;;;;1890068;76;26253;-53
2022/06/25 08:24:59;;;;;;;1.82;1.82;;;;;;;;;;1900095;74;26781;-54
2022/06/25 08:27:26;;;;;;;1.90;1.90;;;;;;;;;;1896812;74;26191;-56
2022/06/25 08:29:54;;;;;;;1.90;1.90;;;;;;;;;;1900085;74;26248;-56
2022/06/25 08:32:21;;;;;;;1.95;1.90;;;;;;;;;;1854425;77;26309;-50
2022/06/25 08:34:48;;;;;;;1.77;1.77;;;;;;;;;;1823865;78;26318;-58
2022/06/25 08:37:16;;;;;;;1.95;1.95;;;;;;;;;;1835141;77;26292;-56
2022/06/25 08:39:43;;;;;;;1.90;1.90;;;;;;;;;;1836597;77;26295;-51
2022/06/25 08:42:11;;;;;;;2.05;2.00;;;;;;;;;;1854072;77;26308;-56
2022/06/25 08:44:38;;;;;;;2.00;2.00;;;;;;;;;;1853025;77;26292;-50
2022/06/25 08:47:05;;;;;;;2.00;1.90;;;;;;;;;;1852442;77;26765;-51
2022/06/25 08:49:34;;;;;;;1.82;1.82;;;;;;;;;;1817165;79;26259;-51
2022/06/25 08:52:03;;;;;;;1.90;1.90;;;;;;;;;;1848984;76;26298;-50
2022/06/25 08:54:31;;;;;;;1.80;1.80;;;;;;;;;;1854981;77;26624;-49
2022/06/25 08:56:58;;;;;;;1.82;1.82;;;;;;;;;;1843868;78;26280;-55
2022/06/25 08:59:25;;;;;;;1.55;1.55;;;;;;;;;;1837560;78;26793;-52
2022/06/25 09:01:53;;;;;;;2.10;2.00;;;;;;;;;;1854996;77;26308;-50
2022/06/25 09:04:20;;;;;;;1.90;1.90;;;;;;;;;;1827592;77;26282;-52
2022/06/25 09:06:49;;;;;;;1.90;1.90;;;;;;;;;;1814695;78;26915;-53
2022/06/25 09:09:17;;;;;;;1.80;1.80;;;;;;;;;;1840475;77;26840;-54
2022/06/25 09:11:54;;;;;;;2.00;2.00;;;;;;;;;;1832600;77;26361;-49
2022/06/25 09:14:23;;;;;;;1.82;1.82;;;;;;;;;;1851899;77;26324;-60
2022/06/25 09:16:52;;;;;;;1.90;1.90;;;;;;;;;;1854012;77;26275;-54
2022/06/25 09:19:20;;;;;;;1.90;1.90;;;;;;;;;;1851032;77;26354;-57
2022/06/25 09:21:48;;;;;;;1.80;1.80;;;;;;;;;;1818905;77;26268;-52
2022/06/25 09:24:15;;;;;;;1.90;1.90;;;;;;;;;;1826977;77;26211;-49
2022/06/25 09:26:52;;;;;;;2.15;2.08;;;;;;;;;;1836916;77;26271;-54
2022/06/25 09:29:19;;;;;;;1.90;1.90;;;;;;;;;;1846597;77;26681;-52
2022/06/25 09:31:47;;;;;;;2.00;2.00;;;;;;;;;;1836822;78;26677;-48
2022/06/25 09:34:14;;;;;;;2.00;1.90;;;;;;;;;;1842092;77;26591;-48
2022/06/25 09:36:41;;;;;;;1.52;1.52;;;;;;;;;;1842324;78;26265;-53
2022/06/25 09:39:09;;;;;;;1.87;1.87;;;;;;;;;;1836904;78;26319;-50
2022/06/25 09:41:49;;;;;;;1.80;1.80;;;;;;;;;;1843027;78;26650;-51
2022/06/25 09:44:18;;;;;;;1.72;1.72;;;;;;;;;;1842285;78;26766;-51
2022/06/25 09:46:56;;;;;;;1.80;1.80;;;;;;;;;;1844781;77;26847;-49
2022/06/25 09:49:24;;;;;;;1.60;1.60;;;;;;;;;;1842613;77;26392;-51
2022/06/25 09:52:01;;;;;;;1.70;1.70;;;;;;;;;;1845283;77;26739;-50
2022/06/25 09:54:29;;;;;;;1.90;1.90;;;;;;;;;;1851334;77;26212;-58
2022/06/25 09:56:56;;;;;;;1.70;1.70;;;;;;;;;;1829198;77;26742;-52
2022/06/25 09:59:25;;;;;;;1.62;1.62;;;;;;;;;;1848834;77;26283;-52
2022/06/25 10:01:52;;;;;;;1.70;1.70;;;;;;;;;;1832830;78;26237;-49
2022/06/25 10:04:20;;;;;;;1.72;1.72;;;;;;;;;;1816621;77;26283;-52
2022/06/25 10:06:49;;;;;;;1.72;1.72;;;;;;;;;;1869522;75;26339;-54
2022/06/25 10:09:18;;;;;;;1.80;1.80;;;;;;;;;;1881172;75;26297;-51
2022/06/25 10:11:45;;;;;;;1.60;1.60;;;;;;;;;;1880354;75;26638;-52
2022/06/25 10:14:13;;;;;;;1.80;1.80;;;;;;;;;;1856908;75;26739;-53
2022/06/25 10:16:41;;;;;;;1.65;1.65;;;;;;;;;;1878127;76;26258;-54
2022/06/25 10:19:10;;;;;;;1.72;1.72;;;;;;;;;;1883927;75;26203;-54
2022/06/25 10:21:37;;;;;;;1.62;1.62;;;;;;;;;;1880516;75;26253;-51
2022/06/25 10:24:06;;;;;;;1.67;1.67;;;;;;;;;;1881430;75;26316;-50
2022/06/25 10:26:34;;;;;;;1.72;1.72;;;;;;;;;;1873940;75;26253;-52
2022/06/25 10:29:03;;;;;;;1.85;1.85;;;;;;;;;;1857665;75;26261;-52
2022/06/25 10:31:30;;;;;;;1.57;1.57;;;;;;;;;;1881060;76;26698;-53
2022/06/25 10:33:59;;;;;;;1.90;1.80;;;;;;;;;;1865596;75;26357;-53
2022/06/25 10:36:46;;;;;;;1.60;1.60;;;;;;;;;;1852438;75;26773;-53
2022/06/25 10:39:29;;;;;;;1.60;1.60;;;;;;;;;;1908004;75;26252;-50
2022/06/25 10:45:07;;;;;;;1.65;1.65;;;;;;;;;;1874247;75;26280;-51
2022/06/25 10:47:38;;;;;;;1.67;1.67;;;;;;;;;;1877451;75;26218;-55
2022/06/25 10:50:09;;;;;;;1.60;1.60;;;;;;;;;;1894555;75;26713;-56
2022/06/25 10:52:36;;;;;;;1.70;1.70;;;;;;;;;;1880623;75;26359;-54
2022/06/25 10:55:04;;;;;;;1.60;1.60;;;;;;;;;;1888452;74;26719;-52
2022/06/25 10:57:40;;;;;;;1.60;1.60;;;;;;;;;;1867068;76;26338;-50
2022/06/25 11:00:09;;;;;;;1.70;1.70;;;;;;;;;;1880895;75;26184;-52
2022/06/25 11:02:38;;;;;;;1.60;1.60;;;;;;;;;;1890889;75;26253;-55
2022/06/25 11:05:07;;;;;;;1.80;1.80;;;;;;;;;;1894580;75;26815;-55
2022/06/25 11:07:35;;;;;;;1.67;1.67;;;;;;;;;;1868649;76;26701;-55
2022/06/25 11:10:03;;;;;;;1.70;1.70;;;;;;;;;;1884293;75;26809;-50
2022/06/25 11:12:34;;;;;;;1.72;1.72;;;;;;;;;;1855982;75;26745;-57
2022/06/25 11:15:02;;;;;;;1.50;1.50;;;;;;;;;;1900609;75;26747;-49
2022/06/25 11:17:30;;;;;;;1.80;1.80;;;;;;;;;;1876023;75;26284;-57
2022/06/25 11:20:07;;;;;;;1.70;1.70;;;;;;;;;;1898189;75;26344;-54
2022/06/25 11:22:36;;;;;;;1.67;1.67;;;;;;;;;;1915238;75;26700;-49
2022/06/25 11:30:34;;;;;;;1.60;1.60;;;;;;;;;;1853942;76;26334;-53
2022/06/25 11:33:03;;;;;;;1.75;1.75;;;;;;;;;;1881134;75;26315;-50
2022/06/25 11:35:40;;;;;;;1.70;1.70;;;;;;;;;;1873065;75;26292;-58
2022/06/25 11:38:22;;;;;;;1.72;1.72;;;;;;;;;;1880767;76;26315;-48
2022/06/25 11:40:50;;;;;;;1.60;1.60;;;;;;;;;;1858186;75;26262;-51
2022/06/25 11:43:18;;;;;;;1.70;1.70;;;;;;;;;;1880736;75;26280;-49
2022/06/25 11:45:52;;;;;;;1.60;1.60;;;;;;;;;;1879227;75;26257;-49
2022/06/25 11:48:19;;;;;;;1.62;1.62;;;;;;;;;;1884056;75;26256;-60
2022/06/25 11:50:47;;;;;;;1.70;1.70;;;;;;;;;;1880888;76;26340;-52
2022/06/25 11:53:14;;;;;;;1.60;1.60;;;;;;;;;;1906949;75;26179;-53
2022/06/25 11:55:41;;;;;;;1.70;1.70;;;;;;;;;;1852019;76;26288;-49
2022/06/25 11:58:09;;;;;;;1.60;1.60;;;;;;;;;;1870622;76;26680;-48
2022/06/25 12:00:36;;;;;;;1.60;1.60;;;;;;;;;;1881053;76;26706;-52
2022/06/25 12:03:05;;;;;;;1.70;1.70;;;;;;;;;;1881042;76;26239;-52
2022/06/25 12:05:35;;;;;;;1.50;1.50;;;;;;;;;;1881154;75;26242;-55
2022/06/25 12:08:02;;;;;;;1.60;1.60;;;;;;;;;;1880754;76;26373;-50
2022/06/25 12:10:30;;;;;;;1.62;1.62;;;;;;;;;;1880881;75;26260;-57
2022/06/25 12:12:57;;;;;;;1.60;1.60;;;;;;;;;;1875739;75;26658;-50
2022/06/25 12:15:31;;;;;;;1.50;1.50;;;;;;;;;;1901565;75;26289;-53
2022/06/25 12:18:05;;;;;;;1.47;1.47;;;;;;;;;;1882139;75;26308;-53
2022/06/25 12:20:33;;;;;;;1.60;1.60;;;;;;;;;;1880948;75;26222;-53
2022/06/25 12:23:01;;;;;;;1.82;1.72;;;;;;;;;;1869584;75;26179;-53
2022/06/25 12:25:29;;;;;;;1.55;1.55;;;;;;;;;;1890272;75;26681;-52
2022/06/25 12:27:56;;;;;;;1.40;1.40;;;;;;;;;;1869473;75;26257;-59
2022/06/25 12:30:25;;;;;;;1.42;1.42;;;;;;;;;;1878544;76;26322;-54
2022/06/25 12:32:53;;;;;;;1.70;1.70;;;;;;;;;;1881240;76;26302;-48
2022/06/25 12:35:22;;;;;;;1.55;1.50;;;;;;;;;;1857504;75;26225;-50
2022/06/25 12:38:03;;;;;;;1.50;1.50;;;;;;;;;;1879039;76;26724;-50
2022/06/25 12:40:32;;;;;;;1.40;1.40;;;;;;;;;;1879658;75;26297;-56
2022/06/25 12:42:59;;;;;;;1.47;1.47;;;;;;;;;;1881231;76;26332;-53
2022/06/25 12:45:28;;;;;;;1.60;1.60;;;;;;;;;;1896717;75;26283;-68
2022/06/25 12:47:55;;;;;;;1.70;1.70;;;;;;;;;;1866365;76;26251;-48
2022/06/25 12:50:26;;;;;;;1.57;1.57;;;;;;;;;;1874024;75;26253;-55
2022/06/25 12:52:54;;;;;;;1.50;1.50;;;;;;;;;;1868315;76;26235;-54
2022/06/25 12:55:25;;;;;;;1.42;1.42;;;;;;;;;;1866362;75;26390;-52
2022/06/25 12:57:53;;;;;;;1.50;1.50;;;;;;;;;;1916552;75;26239;-53
2022/06/25 13:00:25;;;;;;;1.50;1.50;;;;;;;;;;1889108;75;26265;-59
2022/06/25 13:02:53;;;;;;;1.40;1.40;;;;;;;;;;1892347;75;27356;-50
2022/06/25 13:05:20;;;;;;;1.40;1.40;;;;;;;;;;1889260;75;26238;-62
2022/06/25 13:07:48;;;;;;;1.70;1.70;;;;;;;;;;1906295;75;26839;-52
2022/06/25 13:10:16;;;;;;;1.70;1.60;;;;;;;;;;1889550;75;26235;-50
2022/06/25 13:12:44;;;;;;;1.60;1.60;;;;;;;;;;1880362;75;26262;-48
2022/06/25 13:15:12;;;;;;;1.57;1.57;;;;;;;;;;1881189;76;26253;-48
2022/06/25 13:17:39;;;;;;;1.60;1.60;;;;;;;;;;1874099;76;26269;-50
2022/06/25 13:20:08;;;;;;;1.62;1.62;;;;;;;;;;1880911;75;27268;-53
2022/06/25 13:22:36;;;;;;;1.60;1.60;;;;;;;;;;1894406;75;27430;-49
2022/06/25 13:25:05;;;;;;;1.50;1.50;;;;;;;;;;1896541;74;26267;-50
2022/06/25 13:27:33;;;;;;;1.65;1.65;;;;;;;;;;1893698;75;26317;-53
2022/06/25 13:30:00;;;;;;;1.50;1.50;;;;;;;;;;1885353;74;26263;-53
2022/06/25 13:32:28;;;;;;;1.50;1.50;;;;;;;;;;1891476;74;26316;-55
2022/06/25 13:34:56;;;;;;;1.57;1.57;;;;;;;;;;1907893;74;26324;-54
2022/06/25 13:37:23;;;;;;;1.60;1.60;;;;;;;;;;1882391;74;26231;-56
2022/06/25 13:39:50;;;;;;;1.65;1.65;;;;;;;;;;1890902;75;26319;-52
2022/06/25 13:42:18;;;;;;;1.70;1.70;;;;;;;;;;1923589;74;26291;-50
2022/06/25 13:44:45;;;;;;;1.65;1.65;;;;;;;;;;1916232;74;26255;-52
2022/06/25 13:47:12;;;;;;;1.80;1.80;;;;;;;;;;1908308;74;26246;-55
2022/06/25 13:49:40;;;;;;;1.60;1.60;;;;;;;;;;1874928;74;26254;-52
2022/06/25 13:52:07;;;;;;;1.62;1.62;;;;;;;;;;1871945;75;26242;-50
2022/06/25 13:54:35;;;;;;;1.55;1.52;;;;;;;;;;1896597;74;26342;-49
2022/06/25 13:57:02;;;;;;;1.50;1.50;;;;;;;;;;1884184;74;26269;-55
2022/06/25 13:59:29;;;;;;;1.47;1.47;;;;;;;;;;1896655;75;26238;-53
2022/06/25 14:01:57;;;;;;;1.40;1.40;;;;;;;;;;1890842;74;26350;-51
2022/06/25 14:04:24;;;;;;;1.60;1.60;;;;;;;;;;1889030;74;26265;-56
2022/06/25 14:06:52;;;;;;;1.60;1.60;;;;;;;;;;1906956;74;26256;-49
2022/06/25 14:09:19;;;;;;;1.77;1.77;;;;;;;;;;1895044;74;26293;-52
2022/06/25 14:11:46;;;;;;;1.72;1.72;;;;;;;;;;1877019;74;26263;-48
2022/06/25 14:14:14;;;;;;;1.50;1.50;;;;;;;;;;1888267;74;26257;-56
2022/06/25 14:16:42;;;;;;;1.50;1.50;;;;;;;;;;1903743;74;26740;-51
2022/06/25 14:19:09;;;;;;;1.35;1.35;;;;;;;;;;1878435;74;26331;-55
2022/06/25 14:21:37;;;;;;;1.52;1.52;;;;;;;;;;1892617;75;26288;-52
2022/06/25 14:24:04;;;;;;;1.45;1.45;;;;;;;;;;1880875;76;26675;-50
2022/06/25 14:26:31;;;;;;;1.50;1.50;;;;;;;;;;1849090;75;26212;-53
2022/06/25 14:28:59;;;;;;;1.47;1.47;;;;;;;;;;1870780;75;26316;-49
2022/06/25 14:31:27;;;;;;;1.50;1.50;;;;;;;;;;1873498;75;26729;-52
2022/06/25 14:33:55;;;;;;;1.57;1.57;;;;;;;;;;1855247;75;26252;-52
2022/06/25 14:44:38;;;;;;;1.45;1.45;;;;;;;;;;1860836;75;26326;-59
2022/06/25 14:47:05;;;;;;;1.40;1.40;;;;;;;;;;1876557;75;26285;-57
2022/06/25 14:49:33;;;;;;;1.60;1.55;;;;;;;;;;1890975;75;26327;-56
2022/06/25 14:52:00;;;;;;;1.65;1.65;;;;;;;;;;1892669;75;26226;-54
2022/06/25 14:54:27;;;;;;;1.50;1.50;;;;;;;;;;1905039;75;26197;-52
2022/06/25 14:56:54;;;;;;;1.40;1.40;;;;;;;;;;1881542;75;26722;-51
2022/06/25 14:59:22;;;;;;;1.52;1.52;;;;;;;;;;1862795;76;26630;-58
2022/06/25 15:01:49;;;;;;;1.50;1.50;;;;;;;;;;1882791;76;26256;-54
2022/06/25 15:04:16;;;;;;;1.50;1.50;;;;;;;;;;1903065;75;26243;-48
2022/06/25 15:06:43;;;;;;;1.70;1.60;;;;;;;;;;1870267;76;26513;-51
2022/06/25 15:09:11;;;;;;;1.65;1.65;;;;;;;;;;1875011;75;26271;-53
2022/06/25 15:11:38;;;;;;;1.65;1.60;;;;;;;;;;1893436;75;26329;-50
2022/06/25 15:14:06;;;;;;;1.60;1.60;;;;;;;;;;1887844;75;26777;-55
2022/06/25 15:16:35;;;;;;;1.50;1.50;;;;;;;;;;1862821;75;26279;-53
2022/06/25 15:19:02;;;;;;;1.50;1.50;;;;;;;;;;1865251;75;26339;-51
2022/06/25 15:21:29;;;;;;;1.50;1.50;;;;;;;;;;1876418;75;26238;-57